Time;durP1;ratioP1;P1;durP2;ratioP2;P2;SDS_P1;SDS_P2;PMS_P1;PMS_P2;Temp;Humidity;BMP_temperature;BMP_pressure;BME280_temperature;BME280_humidity;BME280_pressure;Samples;Min_cycle;Max_cycle;Signal;HPM_P1;HPM_P2
2022/07/26 04:16:27;;;;;;;;;;;27.70;71.50;;;;;;5864821;23;20239;-75
2022/07/26 04:18:54;;;;;;;;;;;27.70;71.50;;;;;;4977656;28;20395;-76
2022/07/26 04:21:20;;;;;;;;;;;27.70;71.50;;;;;;4978241;28;19926;-76
2022/07/26 04:23:47;;;;;;;;;;;27.70;71.60;;;;;;4978362;28;19930;-76
2022/07/26 04:26:14;;;;;;;;;;;27.70;71.60;;;;;;4979236;28;19926;-82
2022/07/26 04:28:41;;;;;;;;;;;27.70;71.60;;;;;;4980612;28;19926;-82
2022/07/26 04:31:07;;;;;;;;;;;27.70;71.60;;;;;;4980202;28;19969;-82
2022/07/26 04:33:36;;;;;;;;;;;27.70;71.40;;;;;;4979741;28;19965;-81
2022/07/26 04:36:03;;;;;;;;;;;27.60;70.90;;;;;;4981877;28;20013;-81
2022/07/26 04:38:29;;;;;;;;;;;27.60;70.70;;;;;;4980711;28;19926;-81
2022/07/26 04:40:56;;;;;;;;;;;27.60;70.50;;;;;;4980564;28;20021;-81
2022/07/26 04:43:23;;;;;;;;;;;27.50;70.10;;;;;;4980707;28;19933;-81
2022/07/26 04:45:50;;;;;;;;;;;27.50;69.70;;;;;;4980308;28;20367;-83
2022/07/26 04:48:17;;;;;;;;;;;27.50;69.20;;;;;;4980838;28;20033;-83
2022/07/26 04:50:45;;;;;;;;;;;27.50;69.20;;;;;;4982386;28;20020;-85
2022/07/26 04:53:12;;;;;;;;;;;27.50;69.20;;;;;;4982528;28;19972;-86
2022/07/26 04:55:39;;;;;;;;;;;27.50;69.10;;;;;;4983941;28;20288;-85
2022/07/26 04:58:06;;;;;;;;;;;27.50;68.90;;;;;;4983195;28;19973;-85
2022/07/26 05:00:32;;;;;;;;;;;27.50;68.50;;;;;;4982784;28;19926;-86
2022/07/26 05:03:00;;;;;;;;;;;27.50;68.20;;;;;;4982726;28;19989;-85
2022/07/26 07:50:10;;;;;;;;;;;27.30;55.90;;;;;;5014589;23;20032;-81
2022/07/26 07:52:37;;;;;;;;;;;27.30;55.80;;;;;;4983776;28;20020;-81
2022/07/26 07:55:04;;;;;;;;;;;27.30;55.70;;;;;;4984159;28;19949;-82
2022/07/26 07:57:31;;;;;;;;;;;27.40;55.70;;;;;;4985179;28;19930;-81
2022/07/26 07:59:59;;;;;;;;;;;27.30;55.50;;;;;;4986176;28;20365;-81
2022/07/26 08:02:27;;;;;;;;;;;27.30;55.40;;;;;;4985601;28;19926;-82
2022/07/26 08:04:54;;;;;;;;;;;27.30;55.30;;;;;;4985343;28;19977;-82
2022/07/26 08:07:25;;;;;;;;;;;27.30;55.20;;;;;;4986264;28;19949;-83
2022/07/26 08:09:56;;;;;;;;;;;27.30;55.10;;;;;;4985456;28;19926;-82
2022/07/26 08:12:22;;;;;;;;;;;27.30;55.00;;;;;;4985094;28;19989;-83
2022/07/26 08:14:49;;;;;;;;;;;27.30;54.90;;;;;;4985483;28;19976;-82
2022/07/26 08:17:16;;;;;;;;;;;27.30;54.80;;;;;;4986206;28;19926;-82
2022/07/26 08:19:43;;;;;;;;;;;27.30;54.70;;;;;;4985095;28;19925;-83
2022/07/26 08:22:10;;;;;;;;;;;27.30;54.60;;;;;;5007276;23;19926;-83
2022/07/26 08:24:39;;;;;;;;;;;27.30;54.60;;;;;;4984955;28;20009;-83
2022/07/26 08:27:06;;;;;;;;;;;27.30;54.50;;;;;;4985342;28;19926;-83
2022/07/26 08:29:32;;;;;;;;;;;27.30;54.40;;;;;;4984906;28;19930;-83
2022/07/26 08:31:59;;;;;;;;;;;27.30;54.30;;;;;;4984670;28;19930;-83
2022/07/26 08:34:26;;;;;;;;;;;27.30;54.20;;;;;;4983790;28;20020;-83
2022/07/26 08:36:52;;;;;;;;;;;27.30;54.10;;;;;;4984178;28;20017;-83
2022/07/26 08:39:19;;;;;;;;;;;27.30;54.00;;;;;;4983634;28;19933;-83
2022/07/26 08:41:47;;;;;;;;;;;27.30;54.00;;;;;;4984751;28;20018;-83
2022/07/26 08:44:14;;;;;;;;;;;27.30;53.90;;;;;;4984466;28;20013;-83
2022/07/26 08:46:42;;;;;;;;;;;27.30;53.80;;;;;;4984235;28;19989;-83
2022/07/26 08:49:09;;;;;;;;;;;27.40;53.80;;;;;;4984304;28;19974;-83
2022/07/26 08:51:38;;;;;;;;;;;27.30;53.70;;;;;;4984266;28;19926;-83
2022/07/26 08:54:05;;;;;;;;;;;27.30;53.50;;;;;;4984523;28;19985;-83
2022/07/26 08:56:32;;;;;;;;;;;27.30;53.50;;;;;;4984113;28;20034;-83
2022/07/26 08:59:02;;;;;;;;;;;27.30;53.40;;;;;;4984307;28;19949;-83
2022/07/26 09:01:28;;;;;;;;;;;27.30;53.30;;;;;;4981961;28;19926;-85
2022/07/26 09:03:55;;;;;;;;;;;27.30;53.20;;;;;;4977282;28;20021;-85
2022/07/26 09:06:22;;;;;;;;;;;27.30;53.10;;;;;;4977394;28;19930;-85
2022/07/26 09:08:50;;;;;;;;;;;27.30;53.00;;;;;;4977122;28;19926;-85
2022/07/26 09:11:27;;;;;;;;;;;27.40;52.90;;;;;;4976618;28;20024;-85
2022/07/26 09:13:54;;;;;;;;;;;27.30;52.60;;;;;;4976889;28;20020;-85
2022/07/26 09:16:23;;;;;;;;;;;27.30;52.60;;;;;;4976790;28;19926;-85
2022/07/26 09:18:49;;;;;;;;;;;27.30;52.60;;;;;;4976810;28;19934;-85
2022/07/26 09:21:26;;;;;;;;;;;27.40;52.70;;;;;;4976615;28;20016;-85
2022/07/26 09:23:52;;;;;;;;;;;27.40;52.70;;;;;;4977647;28;19930;-86
2022/07/26 09:26:20;;;;;;;;;;;27.40;52.70;;;;;;4976343;28;20283;-86
2022/07/26 09:29:01;;;;;;;;;;;27.40;52.70;;;;;;4976499;28;20024;-86
2022/07/26 09:31:29;;;;;;;;;;;27.40;52.70;;;;;;4976836;28;20013;-85
2022/07/26 09:33:55;;;;;;;;;;;27.40;52.70;;;;;;4977708;28;19926;-85
2022/07/26 09:36:22;;;;;;;;;;;27.40;52.50;;;;;;4977655;28;20344;-85
2022/07/26 09:38:50;;;;;;;;;;;27.40;52.30;;;;;;4977226;28;20421;-86
2022/07/26 09:41:18;;;;;;;;;;;27.40;52.20;;;;;;4976458;28;19961;-85
2022/07/26 09:43:44;;;;;;;;;;;27.40;52.20;;;;;;4976236;28;19933;-85
2022/07/26 09:46:11;;;;;;;;;;;27.40;52.10;;;;;;4976401;28;19926;-85
2022/07/26 09:48:39;;;;;;;;;;;27.40;52.00;;;;;;4976148;28;19933;-85
2022/07/26 09:51:06;;;;;;;;;;;27.40;52.00;;;;;;4976119;28;20026;-85
2022/07/26 09:53:38;;;;;;;;;;;27.40;51.90;;;;;;4976086;28;19929;-85
2022/07/26 09:56:05;;;;;;;;;;;27.40;51.90;;;;;;4976316;28;19926;-85
2022/07/26 09:58:31;;;;;;;;;;;27.40;51.80;;;;;;4976413;28;20040;-85
2022/07/26 10:00:58;;;;;;;;;;;27.40;51.70;;;;;;4977221;28;19933;-85
2022/07/26 10:03:25;;;;;;;;;;;27.40;51.60;;;;;;4976624;28;19927;-86
2022/07/26 10:05:54;;;;;;;;;;;27.40;51.50;;;;;;4976514;28;19933;-86
2022/07/26 10:08:21;;;;;;;;;;;27.40;51.40;;;;;;4975703;28;19977;-84
2022/07/26 10:10:50;;;;;;;;;;;27.40;51.40;;;;;;4975716;28;19926;-84
2022/07/26 10:13:17;;;;;;;;;;;27.40;51.40;;;;;;4976232;28;20020;-84
2022/07/26 10:15:45;;;;;;;;;;;27.40;51.30;;;;;;4976555;28;19930;-84
2022/07/26 10:18:31;;;;;;;;;;;27.40;51.30;;;;;;4976774;28;19980;-84
2022/07/26 10:20:59;;;;;;;;;;;27.50;51.30;;;;;;4977225;28;20378;-84
2022/07/26 10:23:37;;;;;;;;;;;27.50;51.20;;;;;;4976970;28;19965;-84
2022/07/26 10:26:04;;;;;;;;;;;27.50;51.20;;;;;;4976519;28;19937;-84
2022/07/26 10:28:32;;;;;;;;;;;27.50;51.10;;;;;;4976416;28;19932;-85
2022/07/26 10:31:14;;;;;;;;;;;27.50;51.10;;;;;;4975871;28;19976;-85
2022/07/26 10:33:43;;;;;;;;;;;27.50;51.00;;;;;;4975396;28;20005;-85
2022/07/26 10:36:22;;;;;;;;;;;27.50;51.00;;;;;;4975391;28;20386;-85
2022/07/26 10:38:57;;;;;;;;;;;27.50;51.00;;;;;;4975966;28;19933;-85
2022/07/26 10:41:31;;;;;;;;;;;27.50;50.90;;;;;;4975794;28;19976;-85
2022/07/26 10:44:13;;;;;;;;;;;27.50;50.80;;;;;;4975763;28;20025;-85
2022/07/26 10:46:54;;;;;;;;;;;27.50;50.70;;;;;;4975747;28;20009;-85
2022/07/26 10:49:26;;;;;;;;;;;27.50;50.70;;;;;;4975911;28;19933;-85
2022/07/26 10:52:04;;;;;;;;;;;27.50;50.60;;;;;;4975177;28;20021;-85
2022/07/26 10:54:31;;;;;;;;;;;27.50;50.50;;;;;;4976039;28;20396;-85
2022/07/26 10:56:57;;;;;;;;;;;27.50;50.40;;;;;;4975629;28;19926;-85
2022/07/26 10:59:31;;;;;;;;;;;27.50;50.40;;;;;;4975512;28;20358;-85
2022/07/26 11:01:58;;;;;;;;;;;27.50;50.40;;;;;;4975365;28;19973;-85
2022/07/26 11:04:25;;;;;;;;;;;27.50;50.30;;;;;;4975299;28;19926;-85
2022/07/26 11:06:52;;;;;;;;;;;27.50;50.30;;;;;;4975267;28;19933;-85
2022/07/26 11:09:22;;;;;;;;;;;27.50;50.20;;;;;;4974894;28;20022;-85
2022/07/26 11:11:51;;;;;;;;;;;27.50;50.20;;;;;;4975609;28;19981;-85
2022/07/26 11:14:18;;;;;;;;;;;27.50;50.20;;;;;;4975236;28;19926;-85
2022/07/26 11:16:46;;;;;;;;;;;27.50;50.10;;;;;;4975127;28;20263;-85
2022/07/26 11:19:14;;;;;;;;;;;27.50;50.10;;;;;;4974992;28;19926;-85
2022/07/26 11:21:41;;;;;;;;;;;27.50;50.00;;;;;;4974889;28;19933;-85
2022/07/26 11:24:07;;;;;;;;;;;27.50;50.00;;;;;;4975243;28;19926;-85
2022/07/26 11:26:41;;;;;;;;;;;27.50;50.00;;;;;;4975194;28;20020;-85
2022/07/26 11:29:08;;;;;;;;;;;27.50;50.00;;;;;;4974689;28;19926;-85
2022/07/26 11:31:37;;;;;;;;;;;27.50;50.00;;;;;;4974679;28;19926;-85
2022/07/26 11:34:04;;;;;;;;;;;27.50;50.00;;;;;;4974919;28;20121;-85
2022/07/26 11:36:31;;;;;;;;;;;27.60;50.00;;;;;;4975245;28;19981;-85
2022/07/26 11:38:58;;;;;;;;;;;27.60;49.90;;;;;;4974820;28;19926;-85
2022/07/26 11:41:25;;;;;;;;;;;27.60;49.80;;;;;;4974817;28;20444;-85
2022/07/26 11:43:54;;;;;;;;;;;27.60;49.80;;;;;;4974694;28;20021;-85
2022/07/26 11:46:21;;;;;;;;;;;27.60;49.80;;;;;;4975000;28;19932;-85
2022/07/26 11:48:49;;;;;;;;;;;27.50;50.20;;;;;;4974575;28;19932;-85
2022/07/26 11:51:16;;;;;;;;;;;27.50;49.60;;;;;;4974949;28;19927;-85
2022/07/26 11:53:43;;;;;;;;;;;27.50;49.60;;;;;;4975008;28;20012;-85
2022/07/26 11:56:14;;;;;;;;;;;27.50;49.50;;;;;;4976307;28;19949;-85
2022/07/26 11:58:41;;;;;;;;;;;27.50;49.50;;;;;;4978699;28;19936;-85
2022/07/26 12:01:10;;;;;;;;;;;27.50;49.40;;;;;;4978153;28;20392;-85
2022/07/26 12:03:37;;;;;;;;;;;27.60;49.40;;;;;;4978639;28;19926;-85
2022/07/26 12:06:04;;;;;;;;;;;27.50;49.30;;;;;;4978556;28;20004;-85
2022/07/26 12:08:44;;;;;;;;;;;27.50;49.20;;;;;;4978407;28;20017;-85
2022/07/26 12:11:11;;;;;;;;;;;27.50;49.20;;;;;;4978399;28;20005;-84
2022/07/26 12:13:48;;;;;;;;;;;27.50;49.00;;;;;;4978429;28;19933;-84
2022/07/26 12:19:10;;;;;;;;;;;27.50;48.80;;;;;;5158033;27;19925;-83
2022/07/26 12:21:38;;;;;;;;;;;27.50;48.70;;;;;;5157251;27;20026;-83
2022/07/26 12:24:05;;;;;;;;;;;27.50;48.70;;;;;;5156891;27;19923;-83
2022/07/26 12:26:32;;;;;;;;;;;27.50;48.50;;;;;;5156770;27;19983;-83
2022/07/26 12:29:23;;;;;;;;;;;27.50;48.40;;;;;;5156852;27;19935;-83
2022/07/26 12:31:59;;;;;;;;;;;27.50;48.30;;;;;;5158018;27;19923;-83
2022/07/26 12:34:27;;;;;;;;;;;27.50;48.20;;;;;;5158312;27;20363;-84
2022/07/26 12:36:54;;;;;;;;;;;27.50;48.10;;;;;;5161838;27;19930;-84
2022/07/26 12:39:21;;;;;;;;;;;27.50;48.00;;;;;;5159479;27;20445;-83
2022/07/26 12:41:49;;;;;;;;;;;27.50;47.90;;;;;;5158868;27;19924;-83
2022/07/26 12:44:16;;;;;;;;;;;27.50;47.90;;;;;;5157844;27;19923;-83
2022/07/26 12:46:43;;;;;;;;;;;27.50;47.80;;;;;;5158412;27;20376;-83
2022/07/26 12:49:10;;;;;;;;;;;27.50;47.80;;;;;;5159926;27;19934;-83
2022/07/26 12:51:38;;;;;;;;;;;27.50;47.80;;;;;;5158911;27;20433;-83
2022/07/26 12:54:05;;;;;;;;;;;27.50;47.80;;;;;;5159114;27;19923;-83
2022/07/26 12:56:32;;;;;;;;;;;27.50;47.80;;;;;;5158252;27;19923;-83
2022/07/26 12:59:00;;;;;;;;;;;27.50;47.80;;;;;;5158407;27;20009;-84
2022/07/26 13:01:27;;;;;;;;;;;27.50;47.80;;;;;;5157835;27;19923;-84
2022/07/26 13:03:54;;;;;;;;;;;27.50;47.70;;;;;;5157687;27;20014;-84
2022/07/26 13:06:21;;;;;;;;;;;27.50;48.20;;;;;;5158108;27;19967;-84
2022/07/26 13:08:49;;;;;;;;;;;27.50;47.50;;;;;;5158093;27;20002;-84
2022/07/26 13:11:15;;;;;;;;;;;27.50;47.40;;;;;;5157553;27;20018;-84
2022/07/26 13:13:42;;;;;;;;;;;27.50;47.30;;;;;;5157251;27;20010;-84
2022/07/26 13:16:09;;;;;;;;;;;27.50;47.30;;;;;;5158082;27;19923;-84
2022/07/26 13:18:35;;;;;;;;;;;27.50;47.20;;;;;;5157273;27;20441;-84
2022/07/26 13:21:02;;;;;;;;;;;27.60;47.30;;;;;;5157464;27;19977;-84
2022/07/26 13:23:29;;;;;;;;;;;27.50;47.10;;;;;;5156640;27;20010;-84
2022/07/26 13:25:57;;;;;;;;;;;27.50;47.10;;;;;;5157191;27;19923;-84
2022/07/26 13:28:23;;;;;;;;;;;27.60;47.10;;;;;;5155347;27;19990;-84
2022/07/26 13:30:50;;;;;;;;;;;27.50;46.90;;;;;;5142841;27;20030;-84
2022/07/26 13:33:17;;;;;;;;;;;27.50;46.90;;;;;;5142894;27;20027;-84
2022/07/26 13:35:43;;;;;;;;;;;27.50;46.80;;;;;;5142284;27;19990;-84
2022/07/26 13:38:10;;;;;;;;;;;27.50;46.70;;;;;;5142301;27;19927;-84
2022/07/26 13:40:37;;;;;;;;;;;27.50;46.70;;;;;;5142541;27;19998;-84
2022/07/26 13:43:05;;;;;;;;;;;27.50;46.60;;;;;;5142430;27;20018;-84
2022/07/26 13:45:32;;;;;;;;;;;27.50;46.50;;;;;;5141873;27;19930;-84
2022/07/26 13:47:58;;;;;;;;;;;27.50;46.40;;;;;;5140750;27;20398;-84
2022/07/26 13:50:25;;;;;;;;;;;27.50;46.30;;;;;;5142945;27;19970;-84
2022/07/26 13:52:52;;;;;;;;;;;27.50;46.20;;;;;;5140699;27;19966;-84
2022/07/26 13:55:19;;;;;;;;;;;27.50;46.10;;;;;;5140739;27;20017;-84
2022/07/26 13:57:46;;;;;;;;;;;27.50;46.00;;;;;;5143072;27;19966;-84
2022/07/26 14:00:15;;;;;;;;;;;27.50;46.00;;;;;;5143931;27;20010;-85
2022/07/26 14:02:41;;;;;;;;;;;27.50;45.90;;;;;;5143600;27;19923;-85
2022/07/26 14:05:08;;;;;;;;;;;27.50;45.80;;;;;;5144210;27;19982;-85
2022/07/26 14:07:35;;;;;;;;;;;27.50;45.70;;;;;;5143555;27;19962;-84
2022/07/26 14:10:02;;;;;;;;;;;27.50;45.70;;;;;;5143037;27;20033;-84
2022/07/26 14:12:28;;;;;;;;;;;27.50;45.60;;;;;;5142951;27;19923;-84
2022/07/26 14:14:55;;;;;;;;;;;27.50;45.60;;;;;;5142972;27;19987;-84
2022/07/26 14:17:23;;;;;;;;;;;27.50;45.50;;;;;;5142386;27;20013;-85
2022/07/26 14:19:50;;;;;;;;;;;27.50;45.50;;;;;;5142683;27;19923;-85
2022/07/26 14:22:17;;;;;;;;;;;27.50;45.40;;;;;;5143197;27;20390;-84
2022/07/26 14:24:44;;;;;;;;;;;27.60;45.40;;;;;;5141715;27;20365;-83
2022/07/26 14:27:10;;;;;;;;;;;27.60;45.40;;;;;;5142618;27;20034;-83
2022/07/26 14:29:37;;;;;;;;;;;27.60;45.30;;;;;;5142344;27;20018;-83
2022/07/26 14:32:04;;;;;;;;;;;27.60;45.30;;;;;;5141345;27;20006;-83
2022/07/26 14:34:32;;;;;;;;;;;27.60;45.20;;;;;;5137776;27;20457;-83
2022/07/26 14:36:58;;;;;;;;;;;27.50;45.10;;;;;;5141897;27;19983;-83
2022/07/26 14:39:25;;;;;;;;;;;27.60;45.10;;;;;;5140913;27;19959;-82
2022/07/26 14:41:52;;;;;;;;;;;27.60;45.10;;;;;;5143204;27;20025;-84
2022/07/26 14:44:18;;;;;;;;;;;27.50;44.90;;;;;;5141467;27;19990;-84
2022/07/26 14:46:45;;;;;;;;;;;27.50;44.80;;;;;;5142220;27;19974;-84
2022/07/26 14:49:12;;;;;;;;;;;27.50;44.80;;;;;;5141609;27;20022;-84
2022/07/26 14:51:40;;;;;;;;;;;27.50;44.70;;;;;;5140961;27;20013;-84
2022/07/26 14:54:07;;;;;;;;;;;27.50;44.70;;;;;;5140468;27;20013;-82
2022/07/26 14:56:33;;;;;;;;;;;27.50;44.60;;;;;;5141795;27;19945;-82
2022/07/26 14:59:00;;;;;;;;;;;27.50;44.60;;;;;;5139985;27;20020;-81
2022/07/26 15:01:27;;;;;;;;;;;27.50;44.50;;;;;;5140465;27;20002;-85
2022/07/26 15:03:54;;;;;;;;;;;27.50;44.50;;;;;;5142843;27;19991;-84
2022/07/26 15:06:21;;;;;;;;;;;27.50;44.40;;;;;;5143969;27;20023;-84
2022/07/26 15:08:49;;;;;;;;;;;27.50;44.40;;;;;;5144374;27;19923;-84
2022/07/26 15:11:15;;;;;;;;;;;27.60;44.40;;;;;;5145713;27;19967;-84
2022/07/26 15:13:42;;;;;;;;;;;27.60;44.30;;;;;;5145116;27;20014;-85
2022/07/26 15:16:09;;;;;;;;;;;27.60;44.30;;;;;;5143208;27;19966;-85
2022/07/26 15:18:35;;;;;;;;;;;27.60;44.30;;;;;;5143897;27;20002;-83
2022/07/26 15:21:02;;;;;;;;;;;27.60;44.20;;;;;;5141733;27;20002;-83
2022/07/26 15:23:29;;;;;;;;;;;27.60;44.20;;;;;;5143328;27;20384;-85
2022/07/26 15:25:57;;;;;;;;;;;27.60;44.20;;;;;;5141925;27;20362;-84
2022/07/26 15:28:24;;;;;;;;;;;27.60;44.10;;;;;;5143052;27;19970;-84
2022/07/26 15:30:50;;;;;;;;;;;27.60;44.10;;;;;;5141729;27;19927;-85
2022/07/26 15:33:19;;;;;;;;;;;27.60;44.00;;;;;;5141045;27;19983;-83
2022/07/26 15:35:48;;;;;;;;;;;27.60;44.00;;;;;;5142158;27;20283;-84
2022/07/26 15:38:14;;;;;;;;;;;27.60;44.00;;;;;;5139710;27;19928;-85
2022/07/26 15:40:41;;;;;;;;;;;27.60;44.00;;;;;;5139728;27;20391;-85
2022/07/26 15:43:09;;;;;;;;;;;27.60;43.90;;;;;;5140311;27;20394;-85
2022/07/26 15:45:40;;;;;;;;;;;27.60;43.90;;;;;;5139975;27;20006;-85
2022/07/26 15:48:07;;;;;;;;;;;27.60;43.90;;;;;;5137200;27;19923;-83
2022/07/26 15:50:34;;;;;;;;;;;27.70;43.90;;;;;;5137843;27;19927;-85
2022/07/26 15:53:00;;;;;;;;;;;27.60;43.80;;;;;;5140576;27;19927;-84
2022/07/26 15:55:27;;;;;;;;;;;27.60;43.80;;;;;;5140956;27;19983;-84
2022/07/26 15:57:54;;;;;;;;;;;27.70;43.90;;;;;;5141449;27;20010;-85
2022/07/26 16:00:22;;;;;;;;;;;27.70;43.80;;;;;;5141969;27;20087;-85
2022/07/26 16:02:49;;;;;;;;;;;27.70;43.90;;;;;;5143825;27;20397;-85
2022/07/26 16:05:16;;;;;;;;;;;27.70;43.90;;;;;;5143720;27;20014;-85
2022/07/26 16:07:43;;;;;;;;;;;27.70;43.90;;;;;;5143146;27;19988;-85
2022/07/26 16:10:11;;;;;;;;;;;27.70;44.00;;;;;;5143386;27;19923;-85
2022/07/26 16:12:37;;;;;;;;;;;27.70;44.00;;;;;;5140747;27;19924;-83
2022/07/26 16:15:05;;;;;;;;;;;27.70;44.00;;;;;;5140653;27;19990;-83
2022/07/26 16:17:33;;;;;;;;;;;27.70;44.00;;;;;;5141710;27;19982;-83
2022/07/26 16:20:00;;;;;;;;;;;27.70;43.90;;;;;;5141213;27;20473;-83
2022/07/26 16:22:27;;;;;;;;;;;27.60;43.60;;;;;;5141860;27;19923;-83
2022/07/26 16:24:53;;;;;;;;;;;27.60;43.30;;;;;;5144140;27;19951;-81
2022/07/26 16:27:20;;;;;;;;;;;27.50;42.80;;;;;;5142963;27;19990;-82
2022/07/26 16:29:47;;;;;;;;;;;27.50;42.80;;;;;;5142936;27;19966;-81
2022/07/26 16:32:13;;;;;;;;;;;27.40;42.80;;;;;;5152964;27;19931;-82
2022/07/26 16:34:41;;;;;;;;;;;27.30;42.70;;;;;;5146945;27;19923;-82
2022/07/26 16:37:08;;;;;;;;;;;27.30;42.30;;;;;;5145943;27;19990;-82
2022/07/26 16:39:35;;;;;;;;;;;27.30;42.10;;;;;;5145193;27;20317;-82
2022/07/26 16:42:02;;;;;;;;;;;27.30;41.80;;;;;;5145197;27;20014;-82
2022/07/26 16:44:28;;;;;;;;;;;27.20;41.50;;;;;;5145873;27;19974;-82
2022/07/26 16:46:55;;;;;;;;;;;27.20;41.30;;;;;;5145899;27;20022;-82
2022/07/26 16:49:22;;;;;;;;;;;27.20;41.10;;;;;;5144576;27;19958;-81
2022/07/26 16:51:50;;;;;;;;;;;27.20;40.90;;;;;;5138992;27;20010;-83
2022/07/26 16:54:17;;;;;;;;;;;27.10;40.50;;;;;;5139426;27;20018;-83
2022/07/26 16:56:44;;;;;;;;;;;27.10;40.20;;;;;;5138871;27;19977;-83
2022/07/26 16:59:10;;;;;;;;;;;27.10;40.00;;;;;;5139763;27;19930;-83
2022/07/26 17:01:37;;;;;;;;;;;27.10;39.80;;;;;;5140304;27;19986;-83
2022/07/26 17:04:04;;;;;;;;;;;27.10;39.60;;;;;;5141125;27;19931;-83
2022/07/26 17:06:31;;;;;;;;;;;27.00;39.30;;;;;;5146251;27;20357;-83
2022/07/26 17:08:59;;;;;;;;;;;27.00;39.10;;;;;;5145327;27;19930;-84
2022/07/26 17:11:25;;;;;;;;;;;27.00;39.50;;;;;;5145673;27;20014;-83
2022/07/26 17:13:52;;;;;;;;;;;27.00;38.80;;;;;;5151939;27;19966;-83
2022/07/26 17:16:19;;;;;;;;;;;27.00;38.60;;;;;;5152929;27;19924;-82
2022/07/26 17:18:46;;;;;;;;;;;27.00;38.50;;;;;;5145173;27;19976;-82
2022/07/26 17:21:12;;;;;;;;;;;27.00;38.40;;;;;;5146217;27;19966;-82
2022/07/26 17:23:39;;;;;;;;;;;27.00;38.20;;;;;;5142601;27;19974;-82
2022/07/26 17:26:07;;;;;;;;;;;27.00;38.00;;;;;;5144065;27;19977;-82
2022/07/26 17:28:34;;;;;;;;;;;27.00;37.90;;;;;;5144438;27;20351;-82
2022/07/26 17:31:00;;;;;;;;;;;27.00;37.70;;;;;;5144665;27;19978;-82
2022/07/26 17:33:27;;;;;;;;;;;27.00;37.60;;;;;;5147535;27;20002;-82
2022/07/26 17:35:54;;;;;;;;;;;27.00;38.00;;;;;;5147540;27;19958;-82
2022/07/26 17:38:20;;;;;;;;;;;27.00;37.40;;;;;;5147479;27;20345;-82
2022/07/26 17:40:50;;;;;;;;;;;27.00;37.40;;;;;;5150008;27;19962;-84
2022/07/26 17:43:18;;;;;;;;;;;27.00;37.40;;;;;;5144518;27;19931;-84
2022/07/26 17:45:44;;;;;;;;;;;27.00;37.40;;;;;;5144274;27;19954;-83
2022/07/26 17:48:11;;;;;;;;;;;27.00;37.40;;;;;;5145480;27;19959;-81
2022/07/26 17:50:38;;;;;;;;;;;27.00;37.40;;;;;;5147253;27;19991;-81
2022/07/26 17:53:04;;;;;;;;;;;27.00;37.10;;;;;;5150662;27;19970;-80
2022/07/26 17:55:31;;;;;;;;;;;27.00;36.90;;;;;;5148757;27;19970;-81
2022/07/26 17:57:58;;;;;;;;;;;27.00;36.80;;;;;;5149587;27;19970;-80
2022/07/26 18:00:26;;;;;;;;;;;26.90;36.60;;;;;;5150702;27;19969;-82
2022/07/26 18:02:52;;;;;;;;;;;27.00;36.60;;;;;;5145844;27;19934;-81
2022/07/26 18:05:19;;;;;;;;;;;27.00;36.30;;;;;;5146812;27;20022;-81
2022/07/26 18:07:46;;;;;;;;;;;26.90;36.20;;;;;;5149824;27;19945;-82
2022/07/26 18:10:13;;;;;;;;;;;26.90;36.10;;;;;;5150391;27;20003;-81
2022/07/26 18:12:39;;;;;;;;;;;26.80;35.90;;;;;;5161255;27;19908;-81
2022/07/26 18:15:07;;;;;;;;;;;26.80;35.80;;;;;;5162745;27;19923;-81
2022/07/26 18:17:35;;;;;;;;;;;26.90;35.70;;;;;;5153918;27;20398;-83
2022/07/26 18:20:01;;;;;;;;;;;26.80;35.50;;;;;;5150862;27;19987;-81
2022/07/26 18:22:28;;;;;;;;;;;26.90;35.50;;;;;;5147554;27;19924;-81
2022/07/26 18:24:55;;;;;;;;;;;26.80;35.30;;;;;;5146261;27;20014;-81
2022/07/26 18:27:22;;;;;;;;;;;26.80;35.20;;;;;;5148134;27;19962;-82
2022/07/26 18:29:49;;;;;;;;;;;26.80;35.10;;;;;;5146771;27;19924;-81
2022/07/26 18:32:16;;;;;;;;;;;26.80;35.00;;;;;;5147757;27;19930;-82
2022/07/26 18:34:44;;;;;;;;;;;26.80;34.90;;;;;;5151081;27;20260;-82
2022/07/26 18:37:10;;;;;;;;;;;26.80;34.90;;;;;;5152221;27;19962;-82
2022/07/26 18:39:37;;;;;;;;;;;26.80;34.90;;;;;;5152166;27;20421;-82
2022/07/26 18:42:05;;;;;;;;;;;26.80;34.80;;;;;;5151151;27;19928;-82
2022/07/26 18:44:31;;;;;;;;;;;26.80;34.70;;;;;;5147224;27;19931;-82
2022/07/26 18:46:58;;;;;;;;;;;26.90;34.70;;;;;;5143595;27;20077;-83
2022/07/26 18:49:25;;;;;;;;;;;26.80;34.60;;;;;;5142979;27;19924;-82
2022/07/26 18:51:53;;;;;;;;;;;26.90;34.60;;;;;;5142949;27;19963;-82
2022/07/26 18:54:19;;;;;;;;;;;26.90;34.50;;;;;;5142732;27;19923;-83
2022/07/26 18:56:46;;;;;;;;;;;26.90;34.50;;;;;;5142461;27;19974;-83
2022/07/26 18:59:13;;;;;;;;;;;26.80;34.30;;;;;;5143271;27;19991;-82
2022/07/26 19:01:39;;;;;;;;;;;26.80;34.20;;;;;;5143642;27;20343;-83
2022/07/26 19:04:08;;;;;;;;;;;26.80;34.20;;;;;;5143015;27;20018;-83
2022/07/26 19:06:36;;;;;;;;;;;26.80;34.20;;;;;;5144462;27;19930;-83
2022/07/26 19:09:05;;;;;;;;;;;26.80;34.10;;;;;;5145947;27;19923;-84
2022/07/26 19:11:33;;;;;;;;;;;26.80;34.00;;;;;;5144363;27;19923;-84
2022/07/26 19:13:59;;;;;;;;;;;26.80;34.00;;;;;;5143750;27;20447;-83
2022/07/26 19:16:26;;;;;;;;;;;26.80;33.90;;;;;;5142371;27;19923;-82
2022/07/26 19:18:53;;;;;;;;;;;26.80;33.90;;;;;;5141132;27;19976;-82
2022/07/26 19:21:19;;;;;;;;;;;26.80;33.80;;;;;;5142151;27;20010;-83
2022/07/26 19:23:46;;;;;;;;;;;26.80;33.80;;;;;;5141398;27;20040;-83
2022/07/26 19:26:14;;;;;;;;;;;26.80;33.80;;;;;;5141376;27;19969;-82
2022/07/26 19:28:41;;;;;;;;;;;26.80;33.70;;;;;;5139612;27;20010;-82
2022/07/26 19:31:07;;;;;;;;;;;26.80;33.70;;;;;;5137934;27;19991;-82
2022/07/26 19:33:34;;;;;;;;;;;26.90;33.70;;;;;;5137296;27;20439;-80
2022/07/26 19:36:01;;;;;;;;;;;26.90;33.80;;;;;;5138719;27;19958;-83
2022/07/26 19:38:27;;;;;;;;;;;26.90;33.80;;;;;;5140492;27;20338;-84
2022/07/26 19:40:54;;;;;;;;;;;26.90;33.80;;;;;;5139805;27;19966;-84
2022/07/26 19:43:22;;;;;;;;;;;26.90;33.80;;;;;;5139736;27;20293;-84
2022/07/26 19:45:49;;;;;;;;;;;26.90;33.80;;;;;;5140783;27;20010;-84
2022/07/26 19:48:15;;;;;;;;;;;27.00;33.90;;;;;;5142329;27;20019;-84
2022/07/26 19:50:42;;;;;;;;;;;27.00;33.90;;;;;;5141750;27;19923;-84
2022/07/26 19:53:09;;;;;;;;;;;27.00;34.00;;;;;;5143624;27;19968;-84
2022/07/26 19:55:37;;;;;;;;;;;27.00;34.00;;;;;;5142510;27;19984;-83
2022/07/26 19:58:03;;;;;;;;;;;27.00;34.60;;;;;;5142067;27;20310;-84
2022/07/26 20:00:31;;;;;;;;;;;27.00;34.00;;;;;;5141564;27;20010;-83
2022/07/26 20:03:00;;;;;;;;;;;27.00;34.10;;;;;;5145281;27;20031;-81
2022/07/26 20:05:27;;;;;;;;;;;27.10;34.20;;;;;;5142753;27;19946;-82
2022/07/26 20:07:53;;;;;;;;;;;27.10;34.20;;;;;;5143510;27;19924;-81
2022/07/26 20:10:20;;;;;;;;;;;27.10;34.20;;;;;;5146130;27;19923;-81
2022/07/26 20:12:48;;;;;;;;;;;27.10;34.30;;;;;;5146552;27;20023;-83
2022/07/26 20:15:15;;;;;;;;;;;27.10;34.30;;;;;;5148040;27;19923;-82
2022/07/26 20:17:44;;;;;;;;;;;27.10;34.40;;;;;;5145147;27;19923;-81
2022/07/26 20:20:12;;;;;;;;;;;27.10;34.40;;;;;;5146757;27;19923;-83
2022/07/26 20:22:39;;;;;;;;;;;27.10;34.50;;;;;;5146993;27;19924;-83
2022/07/26 20:25:06;;;;;;;;;;;27.20;34.60;;;;;;5144902;27;19949;-82
2022/07/26 20:27:34;;;;;;;;;;;27.20;34.60;;;;;;5144356;27;19923;-81
2022/07/26 20:30:02;;;;;;;;;;;27.20;34.70;;;;;;5144431;27;19969;-80
2022/07/26 20:32:29;;;;;;;;;;;27.20;34.80;;;;;;5143409;27;20392;-81
2022/07/26 20:34:57;;;;;;;;;;;27.20;34.80;;;;;;5144373;27;19935;-80
2022/07/26 20:37:24;;;;;;;;;;;27.20;34.80;;;;;;5146227;27;19968;-81
2022/07/26 20:39:51;;;;;;;;;;;27.20;34.90;;;;;;5149093;27;20312;-82
2022/07/26 20:42:18;;;;;;;;;;;27.20;35.00;;;;;;5149321;27;19923;-82
2022/07/26 20:44:45;;;;;;;;;;;27.20;35.10;;;;;;5147902;27;20018;-81
2022/07/26 20:47:12;;;;;;;;;;;27.20;35.10;;;;;;5147564;27;19978;-84
2022/07/26 20:49:40;;;;;;;;;;;27.20;35.20;;;;;;5147906;27;19976;-84
2022/07/26 20:52:08;;;;;;;;;;;27.20;35.20;;;;;;5148332;27;19933;-82
2022/07/26 20:54:35;;;;;;;;;;;27.20;35.30;;;;;;5146764;27;20321;-86
2022/07/26 20:57:01;;;;;;;;;;;27.20;35.30;;;;;;5148357;27;20343;-83
2022/07/26 20:59:28;;;;;;;;;;;27.20;35.40;;;;;;5151341;27;20389;-83
2022/07/26 21:01:55;;;;;;;;;;;27.20;35.50;;;;;;5150351;27;19923;-84
2022/07/26 21:04:21;;;;;;;;;;;27.20;35.50;;;;;;5148556;27;19930;-83
2022/07/26 21:06:48;;;;;;;;;;;27.20;35.60;;;;;;5143854;27;20035;-83
2022/07/26 21:09:17;;;;;;;;;;;27.20;35.70;;;;;;5146409;27;19923;-84
2022/07/26 21:11:44;;;;;;;;;;;27.30;35.80;;;;;;5147341;27;19979;-83
2022/07/26 21:14:10;;;;;;;;;;;27.30;35.80;;;;;;5147013;27;19958;-83
2022/07/26 21:16:37;;;;;;;;;;;27.30;35.90;;;;;;5147305;27;19966;-83
2022/07/26 21:19:04;;;;;;;;;;;27.30;36.00;;;;;;5145501;27;20010;-83
2022/07/26 21:21:32;;;;;;;;;;;27.30;36.10;;;;;;5147211;27;20319;-83